sensor_id;sensor_type;location;lat;lon;timestamp;pressure;altitude;pressure_sealevel;temperature;humidity
69911;BME280;63555;49.920;17.868;2023-04-02T00:09:22;97606.25;;;7.49;81.55
69911;BME280;63555;49.920;17.868;2023-04-02T00:19:43;97614.81;;;7.51;81.43
69911;BME280;63555;49.920;17.868;2023-04-02T00:24:49;97612.19;;;7.51;81.55
69911;BME280;63555;49.920;17.868;2023-04-02T00:29:54;97625.31;;;7.51;81.79
69911;BME280;63555;49.920;17.868;2023-04-02T00:34:56;97621.97;;;7.49;81.81
69911;BME280;63555;49.920;17.868;2023-04-02T00:40:00;97627.34;;;7.48;81.58
69911;BME280;63555;49.920;17.868;2023-04-02T00:45:01;97622.34;;;7.45;81.61
69911;BME280;63555;49.920;17.868;2023-04-02T00:55:20;97624.88;;;7.35;82.39
69911;BME280;63555;49.920;17.868;2023-04-02T01:00:27;97623.34;;;7.32;82.36
69911;BME280;63555;49.920;17.868;2023-04-02T01:05:33;97635.88;;;7.29;82.35
69911;BME280;63555;49.920;17.868;2023-04-02T01:16:18;97631.47;;;7.18;82.63
69911;BME280;63555;49.920;17.868;2023-04-02T01:26:49;97634.00;;;7.09;82.95
69911;BME280;63555;49.920;17.868;2023-04-02T01:31:52;97636.53;;;6.99;82.52
69911;BME280;63555;49.920;17.868;2023-04-02T01:47:23;97648.19;;;6.84;83.19
69911;BME280;63555;49.920;17.868;2023-04-02T01:52:37;97656.41;;;6.79;83.30
69911;BME280;63555;49.920;17.868;2023-04-02T01:57:43;97661.75;;;6.78;82.92
69911;BME280;63555;49.920;17.868;2023-04-02T02:02:48;97659.84;;;6.80;83.00
69911;BME280;63555;49.920;17.868;2023-04-02T02:07:50;97665.09;;;6.80;83.21
69911;BME280;63555;49.920;17.868;2023-04-02T02:12:51;97670.47;;;6.78;82.63
69911;BME280;63555;49.920;17.868;2023-04-02T02:17:58;97676.19;;;6.83;83.55
69911;BME280;63555;49.920;17.868;2023-04-02T02:23:00;97675.81;;;6.88;83.01
69911;BME280;63555;49.920;17.868;2023-04-02T02:28:20;97679.16;;;6.90;83.00
69911;BME280;63555;49.920;17.868;2023-04-02T02:33:25;97684.16;;;6.93;83.05
69911;BME280;63555;49.920;17.868;2023-04-02T02:43:33;97686.91;;;7.02;83.18
69911;BME280;63555;49.920;17.868;2023-04-02T02:48:38;97683.81;;;7.09;83.03
69911;BME280;63555;49.920;17.868;2023-04-02T02:53:47;97696.44;;;7.15;83.31
69911;BME280;63555;49.920;17.868;2023-04-02T02:58:51;97700.00;;;7.14;82.91
69911;BME280;63555;49.920;17.868;2023-04-02T03:03:53;97708.13;;;7.11;82.90
69911;BME280;63555;49.920;17.868;2023-04-02T03:09:15;97710.75;;;7.11;83.14
69911;BME280;63555;49.920;17.868;2023-04-02T03:14:33;97717.41;;;7.15;83.70
69911;BME280;63555;49.920;17.868;2023-04-02T03:19:42;97717.03;;;7.19;83.20
69911;BME280;63555;49.920;17.868;2023-04-02T03:24:51;97718.22;;;7.26;83.07
69911;BME280;63555;49.920;17.868;2023-04-02T03:40:35;97732.41;;;7.35;83.17
69911;BME280;63555;49.920;17.868;2023-04-02T03:45:41;97740.16;;;7.37;83.38
69911;BME280;63555;49.920;17.868;2023-04-02T03:55:45;97748.84;;;7.48;83.15
69911;BME280;63555;49.920;17.868;2023-04-02T04:06:19;97760.38;;;7.57;83.75
69911;BME280;63555;49.920;17.868;2023-04-02T04:11:31;97762.88;;;7.58;83.39
69911;BME280;63555;49.920;17.868;2023-04-02T04:16:50;97763.47;;;7.62;83.61
69911;BME280;63555;49.920;17.868;2023-04-02T04:22:07;97769.44;;;7.64;83.18
69911;BME280;63555;49.920;17.868;2023-04-02T04:37:31;97819.53;;;7.50;83.28
69911;BME280;63555;49.920;17.868;2023-04-02T04:42:37;97832.41;;;7.30;84.11
69911;BME280;63555;49.920;17.868;2023-04-02T04:47:45;97841.09;;;7.09;84.27
69911;BME280;63555;49.920;17.868;2023-04-02T04:52:48;97849.00;;;6.85;84.46
69911;BME280;63555;49.920;17.868;2023-04-02T04:57:49;97862.88;;;6.63;84.83
69911;BME280;63555;49.920;17.868;2023-04-02T05:08:41;97894.47;;;6.25;85.12
69911;BME280;63555;49.920;17.868;2023-04-02T05:13:49;97909.78;;;6.05;85.38
69911;BME280;63555;49.920;17.868;2023-04-02T05:19:21;97922.28;;;5.89;86.10
69911;BME280;63555;49.920;17.868;2023-04-02T05:29:37;97939.44;;;5.55;86.55
69911;BME280;63555;49.920;17.868;2023-04-02T05:34:41;97954.41;;;5.40;86.13
69911;BME280;63555;49.920;17.868;2023-04-02T05:39:55;97961.09;;;5.32;86.26
69911;BME280;63555;49.920;17.868;2023-04-02T05:50:42;97985.81;;;5.13;86.12
69911;BME280;63555;49.920;17.868;2023-04-02T06:01:14;98006.09;;;4.83;86.61
69911;BME280;63555;49.920;17.868;2023-04-02T06:06:44;98013.25;;;4.67;86.43
69911;BME280;63555;49.920;17.868;2023-04-02T06:11:52;98025.09;;;4.58;86.76
69911;BME280;63555;49.920;17.868;2023-04-02T06:16:55;98034.34;;;4.50;86.54
69911;BME280;63555;49.920;17.868;2023-04-02T06:22:09;98044.34;;;4.43;86.61
69911;BME280;63555;49.920;17.868;2023-04-02T06:27:13;98058.81;;;4.34;86.67
69911;BME280;63555;49.920;17.868;2023-04-02T06:32:21;98081.72;;;4.29;86.30
69911;BME280;63555;49.920;17.868;2023-04-02T06:37:32;98088.03;;;4.25;86.62
69911;BME280;63555;49.920;17.868;2023-04-02T06:42:36;98097.56;;;4.26;86.96
69911;BME280;63555;49.920;17.868;2023-04-02T06:47:43;98116.47;;;4.30;87.19
69911;BME280;63555;49.920;17.868;2023-04-02T06:52:57;98131.94;;;4.33;86.73
69911;BME280;63555;49.920;17.868;2023-04-02T06:57:59;98137.34;;;4.30;86.35
69911;BME280;63555;49.920;17.868;2023-04-02T07:03:00;98163.81;;;4.24;86.65
69911;BME280;63555;49.920;17.868;2023-04-02T07:08:04;98164.00;;;4.21;86.82
69911;BME280;63555;49.920;17.868;2023-04-02T07:13:05;98178.72;;;4.22;86.81
69911;BME280;63555;49.920;17.868;2023-04-02T07:18:05;98183.94;;;4.22;86.51
69911;BME280;63555;49.920;17.868;2023-04-02T07:23:06;98184.69;;;4.24;86.65
69911;BME280;63555;49.920;17.868;2023-04-02T07:28:07;98200.00;;;4.30;87.20
69911;BME280;63555;49.920;17.868;2023-04-02T07:33:12;98200.31;;;4.39;86.78
69911;BME280;63555;49.920;17.868;2023-04-02T07:38:13;98217.94;;;4.50;86.35
69911;BME280;63555;49.920;17.868;2023-04-02T07:43:13;98220.28;;;4.55;86.22
69911;BME280;63555;49.920;17.868;2023-04-02T07:48:13;98227.75;;;4.61;85.98
69911;BME280;63555;49.920;17.868;2023-04-02T07:53:26;98230.47;;;4.73;85.84
69911;BME280;63555;49.920;17.868;2023-04-02T07:58:30;98250.88;;;4.67;85.03
69911;BME280;63555;49.920;17.868;2023-04-02T08:03:31;98250.88;;;4.67;85.37
69911;BME280;63555;49.920;17.868;2023-04-02T08:08:31;98259.00;;;4.62;85.16
69911;BME280;63555;49.920;17.868;2023-04-02T08:13:32;98276.25;;;4.65;85.40
69911;BME280;63555;49.920;17.868;2023-04-02T08:18:33;98279.41;;;4.70;84.83
69911;BME280;63555;49.920;17.868;2023-04-02T08:23:35;98289.78;;;4.71;84.99
69911;BME280;63555;49.920;17.868;2023-04-02T08:28:36;98296.69;;;4.87;84.46
69911;BME280;63555;49.920;17.868;2023-04-02T08:33:36;98302.50;;;4.92;84.34
69911;BME280;63555;49.920;17.868;2023-04-02T08:38:36;98308.56;;;4.92;83.55
69911;BME280;63555;49.920;17.868;2023-04-02T08:48:40;98329.97;;;4.69;83.35
69911;BME280;63555;49.920;17.868;2023-04-02T08:53:43;98332.41;;;4.42;83.50
69911;BME280;63555;49.920;17.868;2023-04-02T08:58:47;98346.91;;;4.32;83.59
69911;BME280;63555;49.920;17.868;2023-04-02T09:03:49;98360.22;;;4.11;83.67
69911;BME280;63555;49.920;17.868;2023-04-02T09:08:53;98366.13;;;3.99;83.92
69911;BME280;63555;49.920;17.868;2023-04-02T09:13:57;98375.97;;;3.78;83.66
69911;BME280;63555;49.920;17.868;2023-04-02T09:18:59;98386.06;;;3.69;84.79
69911;BME280;63555;49.920;17.868;2023-04-02T09:24:00;98384.72;;;3.62;84.11
69911;BME280;63555;49.920;17.868;2023-04-02T09:39:30;98421.09;;;3.47;84.67
69911;BME280;63555;49.920;17.868;2023-04-02T09:44:31;98426.59;;;3.41;84.37
69911;BME280;63555;49.920;17.868;2023-04-02T09:49:34;98440.31;;;3.45;84.70
69911;BME280;63555;49.920;17.868;2023-04-02T09:54:36;98448.84;;;3.48;84.43
69911;BME280;63555;49.920;17.868;2023-04-02T09:59:42;98460.63;;;3.56;84.52
69911;BME280;63555;49.920;17.868;2023-04-02T10:04:48;98468.63;;;3.53;84.18
69911;BME280;63555;49.920;17.868;2023-04-02T10:09:57;98463.56;;;3.49;83.74
69911;BME280;63555;49.920;17.868;2023-04-02T10:14:58;98474.84;;;3.50;83.82
69911;BME280;63555;49.920;17.868;2023-04-02T10:20:05;98488.22;;;3.42;83.71
69911;BME280;63555;49.920;17.868;2023-04-02T10:25:14;98492.00;;;3.37;83.56
69911;BME280;63555;49.920;17.868;2023-04-02T10:40:59;98495.41;;;3.72;84.14
69911;BME280;63555;49.920;17.868;2023-04-02T10:56:25;98520.47;;;4.07;82.17
69911;BME280;63555;49.920;17.868;2023-04-02T11:01:29;98529.47;;;4.02;81.83
69911;BME280;63555;49.920;17.868;2023-04-02T11:06:42;98536.19;;;3.90;81.93
69911;BME280;63555;49.920;17.868;2023-04-02T11:11:46;98537.25;;;3.86;82.49
69911;BME280;63555;49.920;17.868;2023-04-02T11:16:49;98539.63;;;3.91;81.93
69911;BME280;63555;49.920;17.868;2023-04-02T11:27:31;98544.53;;;3.97;82.01
69911;BME280;63555;49.920;17.868;2023-04-02T11:32:40;98542.59;;;4.00;81.69
69911;BME280;63555;49.920;17.868;2023-04-02T11:37:43;98548.66;;;4.01;81.69
69911;BME280;63555;49.920;17.868;2023-04-02T11:42:47;98545.13;;;4.02;81.98
69911;BME280;63555;49.920;17.868;2023-04-02T12:03:48;98583.66;;;4.30;80.38
69911;BME280;63555;49.920;17.868;2023-04-02T12:19:32;98595.22;;;4.08;81.50
69911;BME280;63555;49.920;17.868;2023-04-02T12:24:32;98605.03;;;4.21;80.78
69911;BME280;63555;49.920;17.868;2023-04-02T12:29:33;98618.22;;;4.18;80.79
69911;BME280;63555;49.920;17.868;2023-04-02T12:34:34;98612.97;;;4.02;80.53
69911;BME280;63555;49.920;17.868;2023-04-02T12:39:35;98621.19;;;3.94;81.08
69911;BME280;63555;49.920;17.868;2023-04-02T12:44:36;98614.34;;;3.92;81.04
69911;BME280;63555;49.920;17.868;2023-04-02T12:49:41;98618.94;;;4.04;81.37
69911;BME280;63555;49.920;17.868;2023-04-02T12:54:53;98610.41;;;4.18;80.77
69911;BME280;63555;49.920;17.868;2023-04-02T12:59:55;98624.13;;;4.21;80.55
69911;BME280;63555;49.920;17.868;2023-04-02T13:04:57;98623.97;;;4.24;80.19
69911;BME280;63555;49.920;17.868;2023-04-02T13:10:03;98628.88;;;4.30;80.26
69911;BME280;63555;49.920;17.868;2023-04-02T13:15:21;98638.94;;;4.38;80.18
69911;BME280;63555;49.920;17.868;2023-04-02T13:20:28;98636.09;;;4.25;79.51
69911;BME280;63555;49.920;17.868;2023-04-02T13:25:34;98649.09;;;4.09;79.64
69911;BME280;63555;49.920;17.868;2023-04-02T13:30:35;98646.44;;;3.94;80.38
69911;BME280;63555;49.920;17.868;2023-04-02T13:35:35;98645.03;;;4.04;80.45
69911;BME280;63555;49.920;17.868;2023-04-02T13:40:36;98652.44;;;4.29;79.99
69911;BME280;63555;49.920;17.868;2023-04-02T13:45:37;98655.06;;;4.29;79.42
69911;BME280;63555;49.920;17.868;2023-04-02T13:50:38;98670.09;;;4.24;79.45
69911;BME280;63555;49.920;17.868;2023-04-02T13:55:40;98676.56;;;4.16;79.20
69911;BME280;63555;49.920;17.868;2023-04-02T14:00:41;98687.53;;;4.06;79.25
69911;BME280;63555;49.920;17.868;2023-04-02T14:05:50;98691.63;;;3.94;79.55
69911;BME280;63555;49.920;17.868;2023-04-02T14:11:07;98694.59;;;3.87;79.66
69911;BME280;63555;49.920;17.868;2023-04-02T14:16:23;98702.88;;;3.77;79.78
69911;BME280;63555;49.920;17.868;2023-04-02T14:21:45;98700.50;;;3.73;79.93
69911;BME280;63555;49.920;17.868;2023-04-02T14:27:06;98706.88;;;3.67;79.84
69911;BME280;63555;49.920;17.868;2023-04-02T14:32:42;98715.69;;;3.65;79.49
69911;BME280;63555;49.920;17.868;2023-04-02T14:43:23;98725.97;;;3.68;79.77
69911;BME280;63555;49.920;17.868;2023-04-02T14:48:51;98715.31;;;3.72;79.55
69911;BME280;63555;49.920;17.868;2023-04-02T14:59:13;98738.31;;;3.64;79.40
69911;BME280;63555;49.920;17.868;2023-04-02T15:04:19;98748.25;;;3.56;79.23
69911;BME280;63555;49.920;17.868;2023-04-02T15:09:41;98749.56;;;3.46;79.36
69911;BME280;63555;49.920;17.868;2023-04-02T15:14:46;98768.25;;;3.37;79.92
69911;BME280;63555;49.920;17.868;2023-04-02T15:19:48;98763.25;;;3.32;79.17
69911;BME280;63555;49.920;17.868;2023-04-02T15:30:24;98772.53;;;3.19;79.36
69911;BME280;63555;49.920;17.868;2023-04-02T15:35:40;98777.25;;;3.11;80.30
69911;BME280;63555;49.920;17.868;2023-04-02T16:02:37;98814.16;;;3.20;79.70
69911;BME280;63555;49.920;17.868;2023-04-02T16:12:56;98831.84;;;3.14;79.04
69911;BME280;63555;49.920;17.868;2023-04-02T16:18:00;98839.66;;;3.14;79.14
69911;BME280;63555;49.920;17.868;2023-04-02T16:23:09;98855.47;;;3.09;79.25
69911;BME280;63555;49.920;17.868;2023-04-02T16:33:59;98866.81;;;3.08;79.53
69911;BME280;63555;49.920;17.868;2023-04-02T16:49:22;98877.94;;;3.12;79.75
69911;BME280;63555;49.920;17.868;2023-04-02T17:05:51;98891.81;;;3.12;79.89
69911;BME280;63555;49.920;17.868;2023-04-02T17:11:05;98893.50;;;3.13;79.79
69911;BME280;63555;49.920;17.868;2023-04-02T17:16:31;98908.38;;;3.11;80.05
69911;BME280;63555;49.920;17.868;2023-04-02T17:21:34;98904.84;;;3.12;79.94
69911;BME280;63555;49.920;17.868;2023-04-02T17:26:38;98915.34;;;3.11;79.60
69911;BME280;63555;49.920;17.868;2023-04-02T17:31:39;98917.09;;;3.10;79.80
69911;BME280;63555;49.920;17.868;2023-04-02T18:02:38;98944.66;;;2.96;80.92
69911;BME280;63555;49.920;17.868;2023-04-02T18:29:28;98969.50;;;2.82;81.61
69911;BME280;63555;49.920;17.868;2023-04-02T18:45:18;98985.72;;;2.89;82.19
69911;BME280;63555;49.920;17.868;2023-04-02T18:50:30;98976.16;;;2.90;81.94
69911;BME280;63555;49.920;17.868;2023-04-02T18:55:32;98981.38;;;2.90;81.92
69911;BME280;63555;49.920;17.868;2023-04-02T19:00:35;98987.41;;;2.90;82.31
69911;BME280;63555;49.920;17.868;2023-04-02T19:05:47;98993.53;;;2.89;82.01
69911;BME280;63555;49.920;17.868;2023-04-02T19:11:00;98996.16;;;2.89;82.15
69911;BME280;63555;49.920;17.868;2023-04-02T19:16:27;99003.03;;;2.90;81.85
69911;BME280;63555;49.920;17.868;2023-04-02T19:26:53;98998.69;;;2.91;81.68
69911;BME280;63555;49.920;17.868;2023-04-02T19:32:05;99007.34;;;2.91;82.07
69911;BME280;63555;49.920;17.868;2023-04-02T19:42:46;99011.66;;;2.92;82.36
69911;BME280;63555;49.920;17.868;2023-04-02T19:47:48;99016.84;;;2.92;81.87
69911;BME280;63555;49.920;17.868;2023-04-02T19:52:48;99017.94;;;2.86;81.91
69911;BME280;63555;49.920;17.868;2023-04-02T19:57:48;99024.13;;;2.84;81.88
69911;BME280;63555;49.920;17.868;2023-04-02T20:02:49;99028.56;;;2.82;81.65
69911;BME280;63555;49.920;17.868;2023-04-02T20:07:49;99045.09;;;2.81;82.28
69911;BME280;63555;49.920;17.868;2023-04-02T20:12:50;99038.13;;;2.81;81.75
69911;BME280;63555;49.920;17.868;2023-04-02T20:17:50;99032.13;;;2.79;81.96
69911;BME280;63555;49.920;17.868;2023-04-02T20:22:50;99046.00;;;2.80;82.00
69911;BME280;63555;49.920;17.868;2023-04-02T20:27:51;99044.28;;;2.79;82.05
69911;BME280;63555;49.920;17.868;2023-04-02T20:32:51;99047.69;;;2.81;82.68
69911;BME280;63555;49.920;17.868;2023-04-02T20:37:51;99057.25;;;2.80;82.79
69911;BME280;63555;49.920;17.868;2023-04-02T20:42:52;99064.28;;;2.78;82.07
69911;BME280;63555;49.920;17.868;2023-04-02T20:47:52;99053.94;;;2.77;82.46
69911;BME280;63555;49.920;17.868;2023-04-02T20:52:53;99067.06;;;2.74;82.87
69911;BME280;63555;49.920;17.868;2023-04-02T20:57:53;99074.16;;;2.70;82.75
69911;BME280;63555;49.920;17.868;2023-04-02T21:02:54;99074.72;;;2.55;83.14
69911;BME280;63555;49.920;17.868;2023-04-02T21:07:54;99078.78;;;2.39;83.62
69911;BME280;63555;49.920;17.868;2023-04-02T21:12:54;99091.19;;;2.32;84.19
69911;BME280;63555;49.920;17.868;2023-04-02T21:17:55;99090.41;;;2.30;83.86
69911;BME280;63555;49.920;17.868;2023-04-02T21:22:55;99091.41;;;2.26;83.68
69911;BME280;63555;49.920;17.868;2023-04-02T21:27:55;99099.22;;;2.26;83.38
69911;BME280;63555;49.920;17.868;2023-04-02T21:32:56;99093.22;;;2.24;83.89
69911;BME280;63555;49.920;17.868;2023-04-02T21:37:56;99101.81;;;2.26;84.23
69911;BME280;63555;49.920;17.868;2023-04-02T21:42:57;99093.09;;;2.27;83.71
69911;BME280;63555;49.920;17.868;2023-04-02T21:47:57;99097.47;;;2.27;83.49
69911;BME280;63555;49.920;17.868;2023-04-02T21:52:57;99104.31;;;2.29;83.96
69911;BME280;63555;49.920;17.868;2023-04-02T21:57:58;99107.75;;;2.30;83.27
69911;BME280;63555;49.920;17.868;2023-04-02T22:02:58;99115.56;;;2.30;83.82
69911;BME280;63555;49.920;17.868;2023-04-02T22:07:58;99114.72;;;2.29;83.73
69911;BME280;63555;49.920;17.868;2023-04-02T22:12:59;99116.47;;;2.29;83.45
69911;BME280;63555;49.920;17.868;2023-04-02T22:17:59;99121.63;;;2.30;83.96
69911;BME280;63555;49.920;17.868;2023-04-02T22:22:59;99121.56;;;2.32;83.28
69911;BME280;63555;49.920;17.868;2023-04-02T22:28:00;99135.44;;;2.32;83.49
69911;BME280;63555;49.920;17.868;2023-04-02T22:33:00;99137.97;;;2.34;83.62
69911;BME280;63555;49.920;17.868;2023-04-02T22:38:01;99136.94;;;2.38;83.54
69911;BME280;63555;49.920;17.868;2023-04-02T22:43:01;99136.78;;;2.42;83.53
69911;BME280;63555;49.920;17.868;2023-04-02T22:48:02;99144.53;;;2.44;83.19
69911;BME280;63555;49.920;17.868;2023-04-02T22:53:02;99141.94;;;2.44;83.49
69911;BME280;63555;49.920;17.868;2023-04-02T22:58:02;99150.69;;;2.41;83.23
69911;BME280;63555;49.920;17.868;2023-04-02T23:03:03;99154.09;;;2.43;83.41
69911;BME280;63555;49.920;17.868;2023-04-02T23:08:04;99152.41;;;2.42;83.12
69911;BME280;63555;49.920;17.868;2023-04-02T23:13:05;99147.25;;;2.41;82.93
69911;BME280;63555;49.920;17.868;2023-04-02T23:18:05;99153.38;;;2.40;83.34
69911;BME280;63555;49.920;17.868;2023-04-02T23:23:06;99148.31;;;2.35;83.04
69911;BME280;63555;49.920;17.868;2023-04-02T23:28:06;99154.50;;;2.33;82.72
69911;BME280;63555;49.920;17.868;2023-04-02T23:33:06;99160.66;;;2.30;83.28
69911;BME280;63555;49.920;17.868;2023-04-02T23:38:07;99165.06;;;2.28;83.43
69911;BME280;63555;49.920;17.868;2023-04-02T23:43:07;99163.41;;;2.26;83.36
69911;BME280;63555;49.920;17.868;2023-04-02T23:48:07;99156.63;;;2.21;82.70
69911;BME280;63555;49.920;17.868;2023-04-02T23:53:08;99165.56;;;2.14;82.59
69911;BME280;63555;49.920;17.868;2023-04-02T23:58:08;99157.13;;;2.08;82.67
